Time;durP1;ratioP1;P1;durP2;ratioP2;P2;SDS_P1;SDS_P2;PMS_P1;PMS_P2;Temp;Humidity;BMP_temperature;BMP_pressure;BME280_temperature;BME280_humidity;BME280_pressure;Samples;Min_cycle;Max_cycle;Signal;HPM_P1;HPM_P2
2021/04/07 00:00:31;;;;;;;18.13;12.65;;;;;;;5.36;69.67;93640.56;5063886;28;20044;-71
2021/04/07 00:02:57;;;;;;;17.17;11.70;;;;;;;5.25;68.51;93628.47;5063176;28;20076;-71
2021/04/07 00:05:32;;;;;;;48.28;24.48;;;;;;;5.25;69.52;93643.19;5065322;28;20064;-70
2021/04/07 00:07:59;;;;;;;;;;;;;;;5.28;69.98;93635.00;5065281;28;20052;-70
2021/04/07 00:10:37;;;;;;;26.92;13.85;;;;;;;4.84;70.03;93629.38;5065628;28;19935;-70
2021/04/07 00:13:05;;;;;;;19.58;12.80;;;;;;;4.78;71.90;93657.66;5064714;28;20049;-70
2021/04/07 00:15:32;;;;;;;25.45;13.93;;;;;;;4.76;72.62;93659.66;5064184;28;20115;-70
2021/04/07 00:17:58;;;;;;;27.60;14.40;;;;;;;4.87;72.56;93662.50;5063696;28;20052;-70
2021/04/07 00:20:26;;;;;;;33.80;17.40;;;;;;;4.83;73.92;93658.78;5064987;28;20127;-70
2021/04/07 00:22:53;;;;;;;30.52;14.98;;;;;;;4.64;73.84;93671.75;5063411;28;20056;-70
2021/04/07 00:25:22;;;;;;;21.42;14.20;;;;;;;4.63;74.38;93662.47;5064375;28;20051;-70
2021/04/07 00:27:54;;;;;;;21.08;13.60;;;;;;;4.66;74.67;93664.59;5063360;28;20091;-70
2021/04/07 00:30:23;;;;;;;22.27;13.10;;;;;;;4.53;74.80;93660.41;5063523;28;20501;-70
2021/04/07 00:32:50;;;;;;;25.02;14.57;;;;;;;4.40;75.03;93665.78;5063750;28;20056;-70
2021/04/07 00:35:16;;;;;;;20.42;13.77;;;;;;;4.33;75.67;93655.56;5064191;28;20112;-70
2021/04/07 00:37:43;;;;;;;20.00;13.63;;;;;;;4.20;75.72;93666.06;5063852;28;20052;-70
2021/04/07 00:40:10;;;;;;;24.42;14.45;;;;;;;4.16;75.71;93654.59;5064574;28;20434;-70
2021/04/07 00:42:37;;;;;;;24.52;13.73;;;;;;;4.18;75.83;93657.78;5064373;28;20063;-70
2021/04/07 00:45:09;;;;;;;22.17;14.18;;;;;;;4.19;75.36;93641.28;5063044;28;20056;-70
2021/04/07 00:47:36;;;;;;;22.13;14.00;;;;;;;4.25;75.12;93648.16;5060535;28;20067;-70
2021/04/07 00:50:04;;;;;;;21.30;14.20;;;;;;;4.24;74.93;93638.84;5065117;28;20045;-70
2021/04/07 00:52:31;;;;;;;22.67;14.63;;;;;;;4.25;76.36;93600.97;5064035;28;20060;-70
2021/04/07 00:54:58;;;;;;;28.70;14.15;;;;;;;4.16;75.62;93613.38;5062554;28;20123;-70
2021/04/07 00:57:25;;;;;;;30.70;15.93;;;;;;;4.09;75.89;93625.56;5064330;28;20052;-70
2021/04/07 00:59:52;;;;;;;22.42;14.43;;;;;;;4.20;75.23;93640.28;5064088;28;20044;-70
2021/04/07 01:02:20;;;;;;;20.55;14.18;;;;;;;4.25;75.45;93626.72;5064946;28;20067;-70
2021/04/07 01:04:47;;;;;;;25.77;13.98;;;;;;;4.14;75.46;93630.84;5067914;28;20510;-70
2021/04/07 01:07:14;;;;;;;31.73;15.52;;;;;;;4.42;75.54;93614.00;5068632;28;20132;-70
2021/04/07 01:09:41;;;;;;;22.85;14.05;;;;;;;4.56;74.87;93602.47;5068814;28;20649;-70
2021/04/07 01:12:09;;;;;;;22.02;14.38;;;;;;;4.59;75.09;93599.44;5067764;28;20075;-70
2021/04/07 01:14:36;;;;;;;22.55;14.75;;;;;;;4.14;77.46;93574.16;5068443;28;20047;-70
2021/04/07 01:17:04;;;;;;;23.23;15.25;;;;;;;4.25;77.67;93581.16;5067447;28;20063;-70
2021/04/07 01:19:31;;;;;;;25.25;15.38;;;;;;;4.38;77.64;93591.25;5067341;28;20520;-70
2021/04/07 01:21:58;;;;;;;21.05;14.55;;;;;;;4.40;78.28;93589.22;5067811;28;20052;-70
2021/04/07 01:24:25;;;;;;;23.48;14.98;;;;;;;4.18;78.93;93588.97;5068368;28;20051;-70
2021/04/07 01:26:52;;;;;;;27.08;15.07;;;;;;;3.95;79.54;93602.56;5066512;28;20090;-70
2021/04/07 01:29:19;;;;;;;28.17;14.13;;;;;;;4.11;79.74;93600.38;5065923;28;20040;-70
2021/04/07 01:31:47;;;;;;;24.05;14.00;;;;;;;4.26;77.74;93593.00;5068395;28;20166;-70
2021/04/07 01:34:28;;;;;;;22.67;14.07;;;;;;;3.99;78.76;93614.00;5067802;28;20048;-70
2021/04/07 01:36:56;;;;;;;24.80;14.63;;;;;;;4.21;77.78;93578.22;5068455;28;20064;-70
2021/04/07 01:39:27;;;;;;;27.50;16.95;;;;;;;4.40;76.30;93589.22;5067119;28;20048;-70
2021/04/07 01:41:54;;;;;;;30.88;15.05;;;;;;;4.29;77.97;93592.56;5069345;28;20143;-70
2021/04/07 01:44:23;;;;;;;24.55;15.88;;;;;;;4.17;78.69;93589.19;5067373;28;20044;-70
2021/04/07 01:46:51;;;;;;;27.65;15.35;;;;;;;4.30;78.10;93583.81;5068745;28;20053;-71
2021/04/07 01:49:18;;;;;;;24.25;15.80;;;;;;;4.21;78.27;93575.66;5066774;28;20138;-71
2021/04/07 01:51:44;;;;;;;29.48;15.80;;;;;;;4.43;76.69;93603.47;5067000;28;20412;-70
2021/04/07 01:54:13;;;;;;;25.42;14.70;;;;;;;4.31;76.30;93598.28;5067222;28;20051;-70
2021/04/07 01:56:48;;;;;;;21.92;13.85;;;;;;;4.24;76.45;93596.81;5066524;28;20047;-70
2021/04/07 01:59:14;;;;;;;;;;;;;;;4.16;77.12;93613.38;5069419;28;20498;-70
2021/04/07 02:01:42;;;;;;;25.05;14.55;;;;;;;3.89;78.45;93633.56;5066334;28;19997;-70
2021/04/07 02:04:08;;;;;;;26.88;15.63;;;;;;;3.64;79.68;93648.16;5068343;28;20082;-70
2021/04/07 02:06:35;;;;;;;22.83;15.02;;;;;;;3.42;80.26;93634.94;5066688;28;20037;-70
2021/04/07 02:09:02;;;;;;;24.48;16.42;;;;;;;3.18;81.65;93618.56;5068493;28;20141;-70
2021/04/07 02:11:28;;;;;;;25.95;15.20;;;;;;;3.06;82.25;93625.41;5066622;28;20047;-70
2021/04/07 02:13:55;;;;;;;24.40;14.13;;;;;;;2.93;82.47;93615.28;5067849;28;20156;-70
2021/04/07 02:16:21;;;;;;;27.15;15.32;;;;;;;3.00;83.05;93621.13;5067440;28;20037;-70
2021/04/07 02:18:48;;;;;;;31.90;16.70;;;;;;;3.11;83.08;93645.38;5066603;27;20135;-70
2021/04/07 02:21:15;;;;;;;28.52;15.32;;;;;;;2.98;83.59;93644.50;5067049;28;20044;-68
2021/04/07 02:23:41;;;;;;;29.17;16.25;;;;;;;2.92;84.12;93631.69;5066773;28;20048;-68
2021/04/07 02:26:09;;;;;;;29.02;16.25;;;;;;;3.00;84.43;93652.78;5068765;28;20071;-68
2021/04/07 02:28:35;;;;;;;28.70;16.67;;;;;;;2.83;84.81;93657.69;5065636;28;20057;-68
2021/04/07 02:31:03;;;;;;;23.73;16.05;;;;;;;2.74;86.18;93666.69;5068531;28;20044;-68
2021/04/07 02:33:29;;;;;;;30.85;17.02;;;;;;;2.60;87.08;93683.97;5066107;28;20048;-68
2021/04/07 02:35:56;;;;;;;32.38;19.00;;;;;;;2.59;87.71;93666.19;5067421;28;20449;-70
2021/04/07 02:38:22;;;;;;;25.85;15.40;;;;;;;2.52;87.01;93686.00;5067538;28;20049;-70
2021/04/07 02:40:48;;;;;;;28.88;17.02;;;;;;;2.45;87.07;93676.59;5065685;28;20071;-70
2021/04/07 02:43:15;;;;;;;36.33;19.75;;;;;;;2.29;87.67;93671.94;5066234;28;20058;-68
2021/04/07 02:45:41;;;;;;;33.83;17.90;;;;;;;2.36;87.88;93664.97;5067125;28;20429;-69
2021/04/07 02:48:08;;;;;;;36.03;19.27;;;;;;;2.33;88.41;93639.69;5067887;28;20060;-68
2021/04/07 02:50:34;;;;;;;35.33;19.80;;;;;;;2.40;87.96;93642.22;5066688;28;20068;-69
2021/04/07 02:53:01;;;;;;;34.15;19.70;;;;;;;2.47;87.65;93648.88;5067028;28;20494;-68
2021/04/07 02:55:27;;;;;;;33.33;18.42;;;;;;;2.52;87.65;93650.03;5066782;28;20040;-68
2021/04/07 02:57:54;;;;;;;40.08;18.83;;;;;;;2.49;87.90;93653.81;5066112;28;20064;-68
2021/04/07 03:00:21;;;;;;;31.75;19.73;;;;;;;2.39;88.55;93656.06;5067386;28;20575;-68
2021/04/07 03:02:47;;;;;;;36.97;17.77;;;;;;;2.39;89.34;93674.81;5063434;28;20059;-68
2021/04/07 03:05:14;;;;;;;29.98;17.55;;;;;;;2.30;89.33;93637.53;5067188;28;20482;-68
2021/04/07 03:07:41;;;;;;;26.58;15.13;;;;;;;2.38;89.65;93691.25;5065822;28;20510;-70
2021/04/07 03:10:10;;;;;;;27.13;16.85;;;;;;;2.24;89.86;93707.75;5069227;28;20499;-70
2021/04/07 03:12:37;;;;;;;28.25;15.43;;;;;;;2.32;90.29;93696.44;5064562;28;20127;-70
2021/04/07 03:15:06;;;;;;;28.92;15.80;;;;;;;2.19;90.49;93715.28;5068887;28;20406;-70
2021/04/07 03:17:32;;;;;;;24.70;13.25;;;;;;;1.97;91.24;93710.44;5064326;28;20059;-70
2021/04/07 03:19:59;;;;;;;24.85;12.27;;;;;;;1.90;91.56;93709.69;5068375;28;20522;-70
2021/04/07 03:22:25;;;;;;;19.65;11.40;;;;;;;1.86;91.85;93713.66;5066069;28;20040;-70
2021/04/07 03:24:52;;;;;;;28.67;9.88;;;;;;;1.83;91.67;93726.91;5065099;28;20047;-70
2021/04/07 03:27:18;;;;;;;17.70;9.85;;;;;;;1.63;92.18;93724.41;5064839;28;20506;-70
2021/04/07 03:29:44;;;;;;;16.17;8.15;;;;;;;1.55;92.74;93717.72;5066272;28;20047;-70
2021/04/07 03:32:10;;;;;;;13.27;8.30;;;;;;;1.67;91.86;93721.22;5065951;28;20041;-70
2021/04/07 03:34:37;;;;;;;10.75;7.82;;;;;;;1.61;92.31;93711.00;5064640;28;20048;-70
2021/04/07 03:37:03;;;;;;;44.03;18.52;;;;;;;1.62;92.13;93728.75;5063992;28;20406;-70
2021/04/07 03:39:29;;;;;;;39.40;20.98;;;;;;;1.47;92.33;93720.50;5066202;28;20056;-70
2021/04/07 03:41:56;;;;;;;43.50;31.50;;;;;;;1.59;92.06;93754.81;5063320;28;20055;-71
2021/04/07 03:44:22;;;;;;;17.48;12.85;;;;;;;1.60;92.04;93750.47;5066319;28;20409;-71
2021/04/07 03:46:55;;;;;;;15.20;10.32;;;;;;;1.81;91.91;93747.66;5065668;28;20486;-71
2021/04/07 03:49:22;;;;;;;7.82;5.15;;;;;;;1.73;91.16;93755.59;5059938;28;20071;-70
2021/04/07 03:51:48;;;;;;;9.27;5.03;;;;;;;1.63;90.64;93771.41;5065180;28;20044;-70
2021/04/07 03:54:14;;;;;;;9.98;4.85;;;;;;;1.50;91.09;93776.56;5064117;28;20087;-71
2021/04/07 03:56:41;;;;;;;6.72;3.88;;;;;;;1.48;89.39;93774.19;5065455;28;20036;-71
2021/04/07 03:59:07;;;;;;;7.63;4.05;;;;;;;1.45;89.40;93779.72;5066131;28;20044;-71
2021/04/07 04:01:34;;;;;;;8.25;4.10;;;;;;;1.46;89.57;93790.75;5065905;28;20033;-71
2021/04/07 04:04:00;;;;;;;3.92;2.78;;;;;;;1.41;89.37;93808.56;5064990;28;20052;-71
2021/04/07 04:06:26;;;;;;;5.40;3.78;;;;;;;1.44;89.36;93820.97;5064889;28;20553;-71
2021/04/07 04:08:53;;;;;;;4.47;3.55;;;;;;;1.50;88.65;93823.53;5063923;28;20075;-71
2021/04/07 04:11:20;;;;;;;4.05;3.28;;;;;;;1.33;88.55;93833.44;5063806;28;20697;-70
2021/04/07 04:13:46;;;;;;;5.13;3.28;;;;;;;1.38;88.94;93845.66;5062273;28;20048;-71
2021/04/07 04:16:12;;;;;;;4.65;3.00;;;;;;;1.28;88.32;93835.78;5065269;28;20532;-70
2021/04/07 04:18:40;;;;;;;8.77;3.53;;;;;;;1.19;87.86;93831.84;5065490;28;20422;-69
2021/04/07 04:21:07;;;;;;;7.43;5.05;;;;;;;1.30;88.25;93874.88;5066195;28;20071;-70
2021/04/07 04:23:33;;;;;;;4.63;2.88;;;;;;;1.31;88.77;93866.19;5063470;28;20131;-70
2021/04/07 04:26:00;;;;;;;7.75;3.38;;;;;;;1.27;88.53;93880.38;5065141;28;20044;-70
2021/04/07 04:28:26;;;;;;;7.30;3.70;;;;;;;1.26;88.82;93883.94;5062877;28;20441;-70
2021/04/07 04:30:53;;;;;;;9.80;3.60;;;;;;;1.27;88.38;93895.78;5065190;28;20155;-70
2021/04/07 04:33:19;;;;;;;31.77;3.28;;;;;;;1.13;88.37;93909.56;5064019;28;20057;-71
2021/04/07 04:35:46;;;;;;;10.82;5.82;;;;;;;1.08;88.79;93897.34;5064197;28;20127;-71
2021/04/07 04:38:16;;;;;;;6.63;3.42;;;;;;;1.11;88.16;93914.09;5063846;28;20780;-71
2021/04/07 04:40:42;;;;;;;8.40;4.65;;;;;;;1.08;88.97;93911.91;5064932;28;20080;-71
2021/04/07 04:43:09;;;;;;;7.93;4.43;;;;;;;1.04;87.66;93926.13;5064160;28;20445;-71
2021/04/07 04:45:36;;;;;;;5.38;3.03;;;;;;;0.97;88.45;93925.31;5064171;28;20059;-70
2021/04/07 04:48:03;;;;;;;6.07;2.83;;;;;;;0.71;89.06;93914.00;5063655;28;20067;-70
2021/04/07 04:50:30;;;;;;;4.30;2.72;;;;;;;0.70;89.56;93925.22;5064297;28;20044;-70
2021/04/07 04:52:57;;;;;;;9.60;5.38;;;;;;;0.70;90.23;93927.78;5063789;28;20043;-71
2021/04/07 04:55:23;;;;;;;17.85;8.45;;;;;;;0.67;91.46;93920.50;5064345;28;20052;-70
2021/04/07 04:57:49;;;;;;;5.35;3.92;;;;;;;0.66;91.81;93939.41;5063743;28;20056;-71
2021/04/07 05:00:16;;;;;;;7.70;4.32;;;;;;;0.44;92.59;93916.47;5064912;28;20041;-71
2021/04/07 05:02:44;;;;;;;18.75;11.20;;;;;;;0.45;93.98;93928.31;5063788;28;20119;-71
2021/04/07 05:05:11;;;;;;;18.80;8.60;;;;;;;0.39;95.35;93939.28;5063021;28;20521;-71
2021/04/07 05:07:38;;;;;;;10.60;4.50;;;;;;;0.37;96.43;93944.59;5064403;28;20115;-71
2021/04/07 05:10:05;;;;;;;7.82;4.47;;;;;;;0.38;97.63;93947.97;5065265;28;20052;-71
2021/04/07 05:12:31;;;;;;;8.88;5.30;;;;;;;0.27;98.28;93956.97;5064799;28;20383;-70
2021/04/07 05:14:58;;;;;;;11.05;5.93;;;;;;;0.08;99.40;93945.63;5065624;28;20128;-71
2021/04/07 05:17:27;;;;;;;8.30;5.10;;;;;;;0.21;100.00;93967.19;5063604;28;20502;-71
2021/04/07 05:19:54;;;;;;;47.25;20.58;;;;;;;0.14;100.00;93957.66;5063660;28;20053;-70
2021/04/07 05:22:20;;;;;;;31.85;15.35;;;;;;;0.14;100.00;93980.72;5064356;28;20127;-70
2021/04/07 05:24:47;;;;;;;7.18;5.30;;;;;;;0.12;100.00;93959.63;5064423;28;20045;-70
2021/04/07 05:27:13;;;;;;;7.65;4.75;;;;;;;0.03;100.00;93944.59;5063775;28;20040;-70
2021/04/07 05:29:40;;;;;;;19.67;9.98;;;;;;;0.01;100.00;93967.84;5066496;28;20417;-70
2021/04/07 05:32:07;;;;;;;25.38;12.10;;;;;;;-0.06;100.00;93961.88;5064210;28;20045;-71
2021/04/07 05:34:34;;;;;;;72.68;29.75;;;;;;;0.03;100.00;93996.59;5063376;28;20505;-71
2021/04/07 05:37:01;;;;;;;26.10;13.38;;;;;;;-0.17;100.00;93980.31;5065192;28;20048;-70
2021/04/07 05:39:27;;;;;;;14.15;8.07;;;;;;;-0.08;100.00;93979.19;5065655;28;20418;-70
2021/04/07 05:41:54;;;;;;;79.00;33.85;;;;;;;-0.07;100.00;93981.56;5061436;28;20053;-70
2021/04/07 05:44:21;;;;;;;21.52;8.02;;;;;;;-0.15;100.00;93993.72;5065260;28;20770;-70
2021/04/07 05:46:47;;;;;;;53.67;19.75;;;;;;;-0.26;100.00;93998.34;5063349;28;20040;-70
2021/04/07 05:49:14;;;;;;;8.57;4.88;;;;;;;-0.41;100.00;94005.31;5064254;28;22713;-70
2021/04/07 05:51:40;;;;;;;12.35;6.00;;;;;;;-0.52;100.00;94008.34;5065878;28;20517;-70
2021/04/07 05:54:06;;;;;;;9.57;6.18;;;;;;;-0.65;100.00;93988.53;5067010;28;20056;-70
2021/04/07 05:56:33;;;;;;;9.55;6.00;;;;;;;-0.63;100.00;94012.97;5063419;28;20044;-70
2021/04/07 05:58:59;;;;;;;11.98;6.80;;;;;;;-0.59;100.00;94034.66;5067224;28;20044;-70
2021/04/07 06:01:25;;;;;;;11.48;6.45;;;;;;;-0.63;100.00;94017.28;5064418;28;20040;-70
2021/04/07 06:03:52;;;;;;;12.13;7.28;;;;;;;-0.48;100.00;94027.47;5065718;28;20044;-71
2021/04/07 06:06:20;;;;;;;14.52;6.45;;;;;;;-0.46;100.00;94023.75;5067361;28;20131;-70
2021/04/07 06:08:48;;;;;;;11.10;7.20;;;;;;;-0.56;100.00;94009.69;5066969;28;20052;-71
2021/04/07 06:11:16;;;;;;;10.30;6.90;;;;;;;-0.40;100.00;94009.44;5066549;28;20118;-71
2021/04/07 06:13:44;;;;;;;14.23;6.93;;;;;;;-0.32;100.00;93968.38;5067410;28;20074;-71
2021/04/07 06:16:12;;;;;;;16.25;7.90;;;;;;;-0.23;100.00;93962.16;5068198;28;20821;-71
2021/04/07 06:18:38;;;;;;;16.52;9.35;;;;;;;-0.12;100.00;94008.69;5067587;28;20501;-71
2021/04/07 06:21:05;;;;;;;12.27;6.90;;;;;;;-0.14;100.00;94036.25;5067669;28;20036;-71
2021/04/07 06:23:31;;;;;;;18.70;8.13;;;;;;;-0.34;100.00;94036.88;5067554;28;20497;-71
2021/04/07 06:25:58;;;;;;;17.50;9.55;;;;;;;-0.21;100.00;94054.09;5066331;28;20125;-72
2021/04/07 06:28:24;;;;;;;15.80;7.72;;;;;;;-0.37;100.00;94057.69;5060996;28;20417;-72
2021/04/07 06:30:50;;;;;;;14.50;9.18;;;;;;;-0.23;100.00;94077.31;5064943;28;20056;-72
2021/04/07 06:33:17;;;;;;;16.25;9.05;;;;;;;-0.17;100.00;94090.38;5063586;28;20036;-72
2021/04/07 06:35:46;;;;;;;14.85;9.30;;;;;;;-0.17;100.00;94075.00;5063424;28;20061;-72
2021/04/07 06:38:13;;;;;;;15.38;8.95;;;;;;;-0.07;100.00;94094.22;5062575;28;20041;-72
2021/04/07 06:40:40;;;;;;;17.42;8.95;;;;;;;-0.27;100.00;94073.53;5064104;28;20068;-73
2021/04/07 06:43:07;;;;;;;13.18;8.40;;;;;;;-0.44;100.00;94079.84;5067020;28;20124;-72
2021/04/07 06:45:35;;;;;;;14.43;9.35;;;;;;;-0.31;100.00;94097.91;5067680;28;20138;-73
2021/04/07 06:48:02;;;;;;;19.88;11.02;;;;;;;-0.39;100.00;94100.59;5066076;28;20159;-73
2021/04/07 06:50:29;;;;;;;15.73;9.57;;;;;;;-0.33;100.00;94088.81;5065969;28;20063;-74
2021/04/07 06:52:59;;;;;;;14.55;8.18;;;;;;;-0.41;100.00;94092.31;5064558;28;20049;-73
2021/04/07 06:55:27;;;;;;;59.10;23.00;;;;;;;-0.42;100.00;94129.88;5060263;28;20147;-73
2021/04/07 06:57:54;;;;;;;14.82;8.27;;;;;;;-0.45;100.00;94117.44;5066224;28;20399;-73
2021/04/07 07:00:23;;;;;;;13.25;7.85;;;;;;;-0.46;100.00;94125.31;5097966;27;20430;-74
2021/04/07 07:02:59;;;;;;;20.50;11.02;;;;;;;-0.59;100.00;94126.72;5064664;28;20040;-73
2021/04/07 07:05:26;;;;;;;19.98;9.55;;;;;;;-0.56;100.00;94124.78;5064833;28;20135;-72
2021/04/07 07:08:00;;;;;;;28.40;13.43;;;;;;;-0.57;100.00;94128.34;5065685;28;20040;-72
2021/04/07 07:10:40;;;;;;;35.22;17.25;;;;;;;-0.45;100.00;94142.22;5067350;28;20493;-73
2021/04/07 07:13:09;;;;;;;53.78;20.88;;;;;;;-0.41;100.00;94151.16;5064577;28;20429;-71
2021/04/07 07:15:37;;;;;;;15.35;10.68;;;;;;;-0.55;100.00;94149.41;5061497;28;20059;-71
2021/04/07 07:18:04;;;;;;;20.13;11.40;;;;;;;-0.66;100.00;94141.22;5063103;28;20055;-71
2021/04/07 07:20:35;;;;;;;17.83;10.73;;;;;;;-0.61;100.00;94154.25;5063276;28;20055;-71
2021/04/07 07:23:02;;;;;;;16.80;10.27;;;;;;;-0.61;100.00;94154.25;5067123;28;20044;-71
2021/04/07 07:25:29;;;;;;;15.98;8.23;;;;;;;-0.74;100.00;94136.19;5064425;28;20059;-71
2021/04/07 07:28:03;;;;;;;19.20;10.18;;;;;;;-0.65;100.00;94163.28;5066696;28;20054;-70
2021/04/07 07:30:45;;;;;;;24.75;11.00;;;;;;;-0.62;100.00;94162.88;5064435;28;20071;-71
2021/04/07 07:33:24;;;;;;;18.00;10.57;;;;;;;-0.45;100.00;94162.69;5066379;28;20540;-71
2021/04/07 07:35:52;;;;;;;15.70;10.00;;;;;;;-0.47;100.00;94164.63;5065134;28;20535;-71
2021/04/07 07:38:23;;;;;;;26.20;12.35;;;;;;;-0.32;100.00;94167.97;5065561;28;20054;-71
2021/04/07 07:41:06;;;;;;;48.35;18.95;;;;;;;-0.33;100.00;94179.16;5064904;28;20056;-71
2021/04/07 07:43:37;;;;;;;18.80;10.50;;;;;;;-0.53;100.00;94175.59;5063228;28;20768;-70
2021/04/07 07:46:13;;;;;;;20.38;12.00;;;;;;;-0.56;100.00;94196.41;5064679;28;20057;-72
2021/04/07 07:48:41;;;;;;;19.02;8.57;;;;;;;-0.53;100.00;94196.06;5064804;28;20041;-72
2021/04/07 07:51:13;;;;;;;18.38;9.35;;;;;;;-0.56;100.00;94197.19;5065762;28;20068;-71
2021/04/07 07:53:43;;;;;;;31.48;14.00;;;;;;;-0.50;100.00;94193.16;5057791;28;20051;-72
2021/04/07 07:56:10;;;;;;;21.50;10.63;;;;;;;-0.64;100.00;94205.75;5059002;28;20469;-71
2021/04/07 07:58:47;;;;;;;22.17;11.35;;;;;;;-0.67;100.00;94195.88;5061502;28;20417;-72
2021/04/07 08:01:47;;;;;;;21.40;10.77;;;;;;;-0.68;100.00;94194.31;5059306;28;20044;-68
2021/04/07 08:04:14;;;;;;;25.25;14.52;;;;;;;-0.63;100.00;94202.25;5061348;28;22011;-69
2021/04/07 08:06:41;;;;;;;22.75;12.50;;;;;;;-0.61;100.00;94192.63;5063503;28;20641;-72
2021/04/07 08:09:09;;;;;;;24.15;13.35;;;;;;;-0.54;100.00;94214.94;5063147;28;20043;-71
2021/04/07 08:11:37;;;;;;;14.43;9.40;;;;;;;-0.44;100.00;94225.69;5064097;28;20053;-71
2021/04/07 08:14:05;;;;;;;23.15;11.10;;;;;;;-0.26;100.00;94227.88;5061866;28;20460;-71
2021/04/07 08:16:33;;;;;;;18.05;10.77;;;;;;;-0.13;100.00;94227.25;5061506;28;20545;-72
2021/04/07 08:19:02;;;;;;;18.63;11.90;;;;;;;-0.15;100.00;94226.63;5062963;28;20591;-72
2021/04/07 08:21:29;;;;;;;27.95;12.43;;;;;;;-0.14;100.00;94225.66;5064511;28;20052;-72
2021/04/07 08:24:00;;;;;;;18.92;11.10;;;;;;;-0.01;100.00;94215.56;5064149;28;20152;-72
2021/04/07 08:26:31;;;;;;;15.45;9.73;;;;;;;0.03;99.42;94203.97;5062047;28;20060;-72
2021/04/07 08:28:58;;;;;;;22.40;10.45;;;;;;;0.10;99.71;94184.38;5061672;28;20119;-72
2021/04/07 08:31:28;;;;;;;14.07;8.70;;;;;;;0.27;98.73;94197.75;5054894;28;20056;-72
2021/04/07 08:33:57;;;;;;;17.48;8.68;;;;;;;0.31;97.40;94213.53;5060781;28;20048;-71
2021/04/07 08:36:27;;;;;;;41.67;27.13;;;;;;;0.40;98.01;94232.94;5061407;28;20078;-72
2021/04/07 08:39:14;;;;;;;24.02;14.00;;;;;;;0.38;97.78;94240.00;5063003;28;20044;-71
2021/04/07 08:41:41;;;;;;;14.55;9.77;;;;;;;0.25;97.23;94250.09;5058483;27;20055;-71
2021/04/07 08:44:10;;;;;;;18.65;11.25;;;;;;;0.21;98.10;94243.78;5062996;28;20508;-72
2021/04/07 08:46:45;;;;;;;20.35;12.73;;;;;;;0.23;98.43;94264.88;5062741;28;20084;-71
2021/04/07 08:49:34;;;;;;;19.05;11.80;;;;;;;0.35;98.72;94260.88;5062926;28;20174;-72
2021/04/07 08:52:18;;;;;;;21.65;14.00;;;;;;;0.43;97.81;94253.03;5062823;28;20041;-72
2021/04/07 08:54:48;;;;;;;20.40;11.85;;;;;;;0.41;97.30;94239.63;5063412;28;20051;-72
2021/04/07 08:57:35;;;;;;;18.02;11.20;;;;;;;0.62;97.15;94225.25;5058489;28;20494;-71
2021/04/07 09:00:09;;;;;;;19.15;11.10;;;;;;;0.73;95.03;94217.06;5061407;28;20060;-72
2021/04/07 09:02:49;;;;;;;18.30;11.97;;;;;;;0.75;94.75;94258.69;5058544;28;20037;-72
2021/04/07 09:05:17;;;;;;;20.58;10.73;;;;;;;0.68;94.11;94275.75;5064092;28;21379;-72
2021/04/07 09:07:45;;;;;;;23.33;14.65;;;;;;;0.65;94.80;94291.50;5062377;28;20041;-72
2021/04/07 09:10:14;;;;;;;33.97;13.93;;;;;;;0.63;94.98;94278.06;5061248;28;20059;-72
2021/04/07 09:12:46;;;;;;;19.30;9.68;;;;;;;0.48;94.13;94273.00;5062084;28;20114;-72
2021/04/07 09:15:23;;;;;;;21.92;13.98;;;;;;;0.47;95.36;94269.66;5060760;28;20064;-73
2021/04/07 09:17:57;;;;;;;23.27;13.05;;;;;;;0.45;95.09;94276.75;5064130;28;20517;-73
2021/04/07 09:20:51;;;;;;;38.70;23.30;;;;;;;0.72;95.72;94287.22;5056344;28;20048;-73
2021/04/07 09:23:26;;;;;;;20.83;12.07;;;;;;;0.67;94.81;94289.56;5063014;28;20044;-73
2021/04/07 09:26:22;;;;;;;20.42;12.30;;;;;;;0.71;94.85;94280.53;5057396;27;20052;-73
2021/04/07 09:28:50;;;;;;;20.90;14.23;;;;;;;0.86;94.83;94291.50;5066103;28;20053;-74
2021/04/07 09:31:26;;;;;;;20.45;13.82;;;;;;;0.93;95.11;94274.41;5059841;28;20056;-73
2021/04/07 09:33:55;;;;;;;21.23;13.95;;;;;;;1.03;94.59;94263.84;5063439;28;20044;-73
2021/04/07 09:36:32;;;;;;;19.17;12.52;;;;;;;1.07;94.72;94254.00;5067983;28;20084;-73
2021/04/07 09:39:01;;;;;;;16.30;10.63;;;;;;;0.95;93.71;94271.66;5066168;28;20063;-73
2021/04/07 09:41:34;;;;;;;21.50;9.93;;;;;;;0.99;94.31;94297.72;5063460;28;20482;-73
2021/04/07 09:44:05;;;;;;;13.93;9.63;;;;;;;0.89;94.90;94298.84;5067404;28;20722;-73
2021/04/07 09:46:33;;;;;;;14.70;9.90;;;;;;;0.84;96.21;94301.16;5064482;28;20049;-74
2021/04/07 09:49:04;;;;;;;18.05;11.70;;;;;;;0.74;95.97;94326.31;5064857;28;20128;-73
2021/04/07 09:51:36;;;;;;;26.67;10.98;;;;;;;0.75;96.76;94312.50;5062594;28;20052;-74
2021/04/07 09:54:24;;;;;;;17.27;10.45;;;;;;;0.33;97.87;94311.50;5062810;28;20048;-73
2021/04/07 09:57:04;;;;;;;20.13;10.45;;;;;;;0.23;98.67;94304.06;5061778;28;20055;-73
2021/04/07 09:59:31;;;;;;;17.95;11.50;;;;;;;0.26;100.00;94313.19;5063190;28;20059;-73
2021/04/07 10:01:58;;;;;;;31.02;11.63;;;;;;;0.22;100.00;94317.06;5061490;28;20544;-73
2021/04/07 10:04:28;;;;;;;14.13;10.00;;;;;;;0.21;100.00;94320.59;5065171;28;20050;-73
2021/04/07 10:06:56;;;;;;;19.35;12.27;;;;;;;0.15;100.00;94312.66;5065255;28;20078;-73
2021/04/07 10:09:28;;;;;;;18.65;11.48;;;;;;;0.27;100.00;94337.81;5063474;28;20047;-72
2021/04/07 10:11:56;;;;;;;16.42;10.30;;;;;;;0.23;100.00;94334.03;5061327;28;20125;-72
2021/04/07 10:14:24;;;;;;;22.02;12.68;;;;;;;0.14;100.00;94331.53;5065667;28;20418;-73
2021/04/07 10:16:50;;;;;;;20.70;12.50;;;;;;;0.19;100.00;94344.63;5065981;28;20052;-73
2021/04/07 10:19:17;;;;;;;26.30;13.10;;;;;;;0.18;100.00;94348.16;5064370;28;20052;-73
2021/04/07 10:21:44;;;;;;;23.10;12.23;;;;;;;0.21;100.00;94336.75;5066927;28;20049;-73
2021/04/07 10:24:16;;;;;;;25.33;15.75;;;;;;;0.37;100.00;94340.88;5066602;28;20045;-73
2021/04/07 10:26:43;;;;;;;31.83;18.13;;;;;;;0.31;100.00;94336.50;5066228;28;20130;-73
2021/04/07 10:29:22;;;;;;;27.60;15.98;;;;;;;0.54;100.00;94342.28;5065385;28;20063;-73
2021/04/07 10:32:00;;;;;;;27.15;14.75;;;;;;;0.38;100.00;94347.63;5063993;28;20048;-72
2021/04/07 10:34:33;;;;;;;45.90;19.85;;;;;;;0.30;100.00;94365.63;5065433;28;20041;-73
2021/04/07 10:37:02;;;;;;;27.92;14.40;;;;;;;0.21;100.00;94351.34;5064755;28;20380;-73
2021/04/07 10:39:36;;;;;;;30.08;17.20;;;;;;;0.32;100.00;94358.56;5061309;28;20049;-73
2021/04/07 10:42:04;;;;;;;20.73;13.07;;;;;;;0.29;100.00;94364.03;5064072;28;20110;-74
2021/04/07 10:44:34;;;;;;;28.45;15.85;;;;;;;0.41;100.00;94367.72;5064668;28;20047;-73
2021/04/07 10:47:01;;;;;;;22.55;15.15;;;;;;;0.46;100.00;94365.44;5066311;28;20045;-73
2021/04/07 10:49:28;;;;;;;22.50;14.32;;;;;;;0.59;100.00;94369.13;5066710;28;20050;-73
2021/04/07 10:52:00;;;;;;;32.10;16.02;;;;;;;0.69;100.00;94365.28;5066495;28;20052;-73
2021/04/07 10:54:27;;;;;;;24.63;12.27;;;;;;;0.77;100.00;94366.94;5065005;28;20037;-73
2021/04/07 10:57:09;;;;;;;30.38;14.43;;;;;;;1.01;100.00;94362.44;5066899;28;20146;-73
2021/04/07 10:59:37;;;;;;;24.13;15.02;;;;;;;1.06;100.00;94349.88;5067307;28;20036;-73
2021/04/07 11:02:16;;;;;;;20.58;12.05;;;;;;;1.30;98.98;94366.66;5066449;28;20134;-74
2021/04/07 11:04:42;;;;;;;32.13;15.13;;;;;;;1.42;99.77;94349.00;5066757;28;20048;-75
2021/04/07 11:07:12;;;;;;;28.02;17.40;;;;;;;1.87;99.98;94357.19;5066792;28;20041;-75
2021/04/07 11:09:51;;;;;;;33.78;18.20;;;;;;;2.15;97.99;94374.38;5066154;28;20036;-75
2021/04/07 11:12:21;;;;;;;21.38;14.50;;;;;;;2.01;93.49;94374.28;5066378;28;20123;-76
2021/04/07 11:14:52;;;;;;;36.72;17.88;;;;;;;2.23;94.60;94377.56;5066214;28;20041;-76
2021/04/07 11:17:19;;;;;;;56.95;25.45;;;;;;;2.24;92.06;94374.00;5065100;28;20055;-76
2021/04/07 11:19:46;;;;;;;35.13;19.20;;;;;;;2.33;92.39;94366.94;5065050;28;20391;-75
2021/04/07 11:22:13;;;;;;;34.03;19.42;;;;;;;2.35;92.37;94375.25;5064690;28;20048;-75
2021/04/07 11:24:40;;;;;;;37.53;20.13;;;;;;;2.32;91.57;94374.84;5066426;28;20054;-75
2021/04/07 11:27:07;;;;;;;25.42;15.98;;;;;;;2.21;89.84;94364.09;5067061;28;20045;-75
2021/04/07 11:29:36;;;;;;;27.95;16.67;;;;;;;2.14;89.78;94362.50;5067547;28;20574;-74
2021/04/07 11:32:04;;;;;;;21.15;13.80;;;;;;;2.21;91.31;94378.72;5066026;28;20467;-74